sensor_id;sensor_type;location;lat;lon;timestamp;P1;durP1;ratioP1;P2;durP2;ratioP2
56810;SDS011;42691;47.234;27.494;2023-01-31T00:00:24;21.65;;;14.88;;
56810;SDS011;42691;47.234;27.494;2023-01-31T00:02:49;17.70;;;14.23;;
56810;SDS011;42691;47.234;27.494;2023-01-31T00:05:15;23.10;;;15.02;;
56810;SDS011;42691;47.234;27.494;2023-01-31T00:07:41;13.68;;;11.13;;
56810;SDS011;42691;47.234;27.494;2023-01-31T00:10:06;14.93;;;12.32;;
56810;SDS011;42691;47.234;27.494;2023-01-31T00:12:32;13.85;;;12.30;;
56810;SDS011;42691;47.234;27.494;2023-01-31T00:14:58;22.88;;;13.30;;
56810;SDS011;42691;47.234;27.494;2023-01-31T00:17:24;15.38;;;12.85;;
56810;SDS011;42691;47.234;27.494;2023-01-31T00:19:49;16.35;;;12.55;;
56810;SDS011;42691;47.234;27.494;2023-01-31T00:22:15;18.83;;;13.30;;
56810;SDS011;42691;47.234;27.494;2023-01-31T00:24:40;18.65;;;14.52;;
56810;SDS011;42691;47.234;27.494;2023-01-31T00:27:05;17.10;;;14.18;;
56810;SDS011;42691;47.234;27.494;2023-01-31T00:29:32;16.80;;;12.07;;
56810;SDS011;42691;47.234;27.494;2023-01-31T00:31:58;18.83;;;13.82;;
56810;SDS011;42691;47.234;27.494;2023-01-31T00:34:23;16.95;;;13.95;;
56810;SDS011;42691;47.234;27.494;2023-01-31T00:36:48;20.13;;;13.00;;
56810;SDS011;42691;47.234;27.494;2023-01-31T00:39:14;19.85;;;15.18;;
56810;SDS011;42691;47.234;27.494;2023-01-31T00:41:39;18.08;;;15.20;;
56810;SDS011;42691;47.234;27.494;2023-01-31T00:44:05;18.58;;;12.82;;
56810;SDS011;42691;47.234;27.494;2023-01-31T00:46:30;18.17;;;12.88;;
56810;SDS011;42691;47.234;27.494;2023-01-31T00:48:56;18.58;;;14.82;;
56810;SDS011;42691;47.234;27.494;2023-01-31T00:51:23;22.02;;;14.00;;
56810;SDS011;42691;47.234;27.494;2023-01-31T00:53:49;15.55;;;13.93;;
56810;SDS011;42691;47.234;27.494;2023-01-31T00:56:16;20.25;;;14.25;;
56810;SDS011;42691;47.234;27.494;2023-01-31T00:58:44;19.48;;;14.85;;
56810;SDS011;42691;47.234;27.494;2023-01-31T01:01:14;23.40;;;16.88;;
56810;SDS011;42691;47.234;27.494;2023-01-31T01:03:42;18.40;;;15.88;;
56810;SDS011;42691;47.234;27.494;2023-01-31T01:06:08;16.88;;;14.27;;
56810;SDS011;42691;47.234;27.494;2023-01-31T01:08:35;18.42;;;14.02;;
56810;SDS011;42691;47.234;27.494;2023-01-31T01:11:06;19.40;;;16.30;;
56810;SDS011;42691;47.234;27.494;2023-01-31T01:13:36;19.48;;;13.52;;
56810;SDS011;42691;47.234;27.494;2023-01-31T01:16:14;18.92;;;15.13;;
56810;SDS011;42691;47.234;27.494;2023-01-31T01:18:42;19.92;;;14.93;;
56810;SDS011;42691;47.234;27.494;2023-01-31T01:21:14;20.60;;;14.85;;
56810;SDS011;42691;47.234;27.494;2023-01-31T01:23:41;19.58;;;13.52;;
56810;SDS011;42691;47.234;27.494;2023-01-31T01:26:41;24.45;;;15.82;;
56810;SDS011;42691;47.234;27.494;2023-01-31T01:29:00;13.63;;;12.25;;
56810;SDS011;42691;47.234;27.494;2023-01-31T01:31:26;19.05;;;14.68;;
56810;SDS011;42691;47.234;27.494;2023-01-31T01:33:56;14.18;;;12.65;;
56810;SDS011;42691;47.234;27.494;2023-01-31T01:36:25;16.55;;;14.82;;
56810;SDS011;42691;47.234;27.494;2023-01-31T01:38:51;18.65;;;15.27;;
56810;SDS011;42691;47.234;27.494;2023-01-31T01:41:17;17.90;;;12.95;;
56810;SDS011;42691;47.234;27.494;2023-01-31T01:43:53;18.55;;;14.57;;
56810;SDS011;42691;47.234;27.494;2023-01-31T01:46:32;17.30;;;14.30;;
56810;SDS011;42691;47.234;27.494;2023-01-31T01:51:38;21.65;;;12.43;;
56810;SDS011;42691;47.234;27.494;2023-01-31T01:54:08;23.73;;;13.50;;
56810;SDS011;42691;47.234;27.494;2023-01-31T01:56:41;17.20;;;13.00;;
56810;SDS011;42691;47.234;27.494;2023-01-31T01:59:14;21.73;;;13.02;;
56810;SDS011;42691;47.234;27.494;2023-01-31T02:04:13;19.30;;;12.88;;
56810;SDS011;42691;47.234;27.494;2023-01-31T02:06:42;17.05;;;11.32;;
56810;SDS011;42691;47.234;27.494;2023-01-31T02:09:11;20.25;;;14.30;;
56810;SDS011;42691;47.234;27.494;2023-01-31T02:11:44;19.42;;;15.63;;
56810;SDS011;42691;47.234;27.494;2023-01-31T02:14:09;14.38;;;12.05;;
56810;SDS011;42691;47.234;27.494;2023-01-31T02:16:36;14.18;;;12.57;;
56810;SDS011;42691;47.234;27.494;2023-01-31T02:19:02;16.40;;;13.82;;
56810;SDS011;42691;47.234;27.494;2023-01-31T02:22:08;20.58;;;13.90;;
56810;SDS011;42691;47.234;27.494;2023-01-31T02:30:33;18.40;;;14.43;;
56810;SDS011;42691;47.234;27.494;2023-01-31T02:33:02;21.48;;;15.63;;
56810;SDS011;42691;47.234;27.494;2023-01-31T02:40:53;20.38;;;13.98;;
56810;SDS011;42691;47.234;27.494;2023-01-31T02:43:39;19.33;;;15.38;;
56810;SDS011;42691;47.234;27.494;2023-01-31T02:49:20;19.30;;;14.25;;
56810;SDS011;42691;47.234;27.494;2023-01-31T02:52:06;22.48;;;16.38;;
56810;SDS011;42691;47.234;27.494;2023-01-31T02:54:41;20.00;;;14.18;;
56810;SDS011;42691;47.234;27.494;2023-01-31T02:57:32;16.15;;;14.40;;
56810;SDS011;42691;47.234;27.494;2023-01-31T02:59:59;20.35;;;16.63;;
56810;SDS011;42691;47.234;27.494;2023-01-31T03:02:25;21.83;;;15.07;;
56810;SDS011;42691;47.234;27.494;2023-01-31T03:04:51;20.48;;;14.52;;
56810;SDS011;42691;47.234;27.494;2023-01-31T03:07:18;22.50;;;15.63;;
56810;SDS011;42691;47.234;27.494;2023-01-31T03:12:42;18.40;;;16.48;;
56810;SDS011;42691;47.234;27.494;2023-01-31T03:18:19;18.08;;;13.80;;
56810;SDS011;42691;47.234;27.494;2023-01-31T03:20:58;16.73;;;13.05;;
56810;SDS011;42691;47.234;27.494;2023-01-31T03:23:29;17.00;;;14.88;;
56810;SDS011;42691;47.234;27.494;2023-01-31T03:25:57;17.33;;;15.15;;
56810;SDS011;42691;47.234;27.494;2023-01-31T03:28:26;15.27;;;13.73;;
56810;SDS011;42691;47.234;27.494;2023-01-31T03:34:06;21.45;;;14.25;;
56810;SDS011;42691;47.234;27.494;2023-01-31T03:39:39;21.83;;;14.52;;
56810;SDS011;42691;47.234;27.494;2023-01-31T03:42:24;14.40;;;12.75;;
56810;SDS011;42691;47.234;27.494;2023-01-31T03:45:03;17.85;;;13.10;;
56810;SDS011;42691;47.234;27.494;2023-01-31T03:50:17;18.23;;;13.95;;
56810;SDS011;42691;47.234;27.494;2023-01-31T03:52:51;21.25;;;15.45;;
56810;SDS011;42691;47.234;27.494;2023-01-31T03:55:23;15.63;;;12.05;;
56810;SDS011;42691;47.234;27.494;2023-01-31T03:58:10;20.67;;;15.38;;
56810;SDS011;42691;47.234;27.494;2023-01-31T04:00:40;22.83;;;14.70;;
56810;SDS011;42691;47.234;27.494;2023-01-31T04:03:23;16.48;;;13.85;;
56810;SDS011;42691;47.234;27.494;2023-01-31T04:05:55;19.92;;;15.95;;
56810;SDS011;42691;47.234;27.494;2023-01-31T04:08:21;20.25;;;14.98;;
56810;SDS011;42691;47.234;27.494;2023-01-31T04:10:47;17.30;;;14.48;;
56810;SDS011;42691;47.234;27.494;2023-01-31T04:13:13;16.30;;;13.75;;
56810;SDS011;42691;47.234;27.494;2023-01-31T04:15:39;22.52;;;16.10;;
56810;SDS011;42691;47.234;27.494;2023-01-31T04:18:04;20.38;;;16.05;;
56810;SDS011;42691;47.234;27.494;2023-01-31T04:20:30;21.58;;;14.52;;
56810;SDS011;42691;47.234;27.494;2023-01-31T04:22:56;17.38;;;13.95;;
56810;SDS011;42691;47.234;27.494;2023-01-31T04:25:23;19.40;;;14.77;;
56810;SDS011;42691;47.234;27.494;2023-01-31T04:27:48;18.77;;;15.40;;
56810;SDS011;42691;47.234;27.494;2023-01-31T04:30:15;18.13;;;14.15;;
56810;SDS011;42691;47.234;27.494;2023-01-31T04:32:41;17.55;;;14.68;;
56810;SDS011;42691;47.234;27.494;2023-01-31T04:35:07;17.60;;;12.80;;
56810;SDS011;42691;47.234;27.494;2023-01-31T04:37:33;15.80;;;11.98;;
56810;SDS011;42691;47.234;27.494;2023-01-31T04:39:59;17.75;;;12.30;;
56810;SDS011;42691;47.234;27.494;2023-01-31T04:42:25;14.35;;;12.88;;
56810;SDS011;42691;47.234;27.494;2023-01-31T04:44:50;15.43;;;11.55;;
56810;SDS011;42691;47.234;27.494;2023-01-31T04:47:16;15.18;;;12.85;;
56810;SDS011;42691;47.234;27.494;2023-01-31T04:49:41;17.98;;;13.77;;
56810;SDS011;42691;47.234;27.494;2023-01-31T04:52:08;17.65;;;13.90;;
56810;SDS011;42691;47.234;27.494;2023-01-31T04:54:34;16.02;;;13.00;;
56810;SDS011;42691;47.234;27.494;2023-01-31T04:57:00;14.70;;;12.57;;
56810;SDS011;42691;47.234;27.494;2023-01-31T04:59:26;14.55;;;10.77;;
56810;SDS011;42691;47.234;27.494;2023-01-31T05:01:52;20.13;;;10.77;;
56810;SDS011;42691;47.234;27.494;2023-01-31T05:04:17;18.00;;;11.10;;
56810;SDS011;42691;47.234;27.494;2023-01-31T05:06:43;16.70;;;11.30;;
56810;SDS011;42691;47.234;27.494;2023-01-31T05:09:08;16.27;;;13.32;;
56810;SDS011;42691;47.234;27.494;2023-01-31T05:11:35;16.83;;;11.75;;
56810;SDS011;42691;47.234;27.494;2023-01-31T05:14:00;19.50;;;12.18;;
56810;SDS011;42691;47.234;27.494;2023-01-31T05:16:26;17.27;;;10.07;;
56810;SDS011;42691;47.234;27.494;2023-01-31T05:18:52;16.58;;;11.68;;
56810;SDS011;42691;47.234;27.494;2023-01-31T05:21:17;19.33;;;13.45;;
56810;SDS011;42691;47.234;27.494;2023-01-31T05:23:43;19.80;;;12.73;;
56810;SDS011;42691;47.234;27.494;2023-01-31T05:26:08;17.65;;;14.48;;
56810;SDS011;42691;47.234;27.494;2023-01-31T05:28:34;17.83;;;13.80;;
56810;SDS011;42691;47.234;27.494;2023-01-31T05:31:01;16.55;;;13.07;;
56810;SDS011;42691;47.234;27.494;2023-01-31T05:33:28;14.80;;;10.82;;
56810;SDS011;42691;47.234;27.494;2023-01-31T05:35:55;16.25;;;11.05;;
56810;SDS011;42691;47.234;27.494;2023-01-31T05:38:21;12.10;;;10.90;;
56810;SDS011;42691;47.234;27.494;2023-01-31T05:40:48;14.32;;;10.63;;
56810;SDS011;42691;47.234;27.494;2023-01-31T05:43:14;16.70;;;11.38;;
56810;SDS011;42691;47.234;27.494;2023-01-31T05:45:40;17.17;;;13.15;;
56810;SDS011;42691;47.234;27.494;2023-01-31T05:48:05;19.80;;;17.70;;
56810;SDS011;42691;47.234;27.494;2023-01-31T05:50:31;19.98;;;15.57;;
56810;SDS011;42691;47.234;27.494;2023-01-31T05:52:57;15.65;;;13.48;;
56810;SDS011;42691;47.234;27.494;2023-01-31T05:55:24;17.63;;;12.90;;
56810;SDS011;42691;47.234;27.494;2023-01-31T05:57:51;20.15;;;16.52;;
56810;SDS011;42691;47.234;27.494;2023-01-31T06:00:17;24.58;;;18.98;;
56810;SDS011;42691;47.234;27.494;2023-01-31T06:02:43;19.30;;;16.92;;
56810;SDS011;42691;47.234;27.494;2023-01-31T06:05:09;21.83;;;14.00;;
56810;SDS011;42691;47.234;27.494;2023-01-31T06:07:36;16.55;;;14.13;;
56810;SDS011;42691;47.234;27.494;2023-01-31T06:10:02;19.75;;;12.65;;
56810;SDS011;42691;47.234;27.494;2023-01-31T06:12:29;16.60;;;12.38;;
56810;SDS011;42691;47.234;27.494;2023-01-31T06:14:55;19.98;;;12.60;;
56810;SDS011;42691;47.234;27.494;2023-01-31T06:17:21;14.75;;;13.13;;
56810;SDS011;42691;47.234;27.494;2023-01-31T06:19:48;17.15;;;11.32;;
56810;SDS011;42691;47.234;27.494;2023-01-31T06:22:13;12.52;;;10.90;;
56810;SDS011;42691;47.234;27.494;2023-01-31T06:24:39;18.13;;;13.48;;
56810;SDS011;42691;47.234;27.494;2023-01-31T06:27:04;13.52;;;11.25;;
56810;SDS011;42691;47.234;27.494;2023-01-31T06:29:30;12.43;;;9.95;;
56810;SDS011;42691;47.234;27.494;2023-01-31T06:31:55;15.43;;;10.30;;
56810;SDS011;42691;47.234;27.494;2023-01-31T06:34:21;16.48;;;10.98;;
56810;SDS011;42691;47.234;27.494;2023-01-31T06:36:46;11.00;;;9.85;;
56810;SDS011;42691;47.234;27.494;2023-01-31T06:39:12;12.18;;;9.38;;
56810;SDS011;42691;47.234;27.494;2023-01-31T06:41:38;14.63;;;10.27;;
56810;SDS011;42691;47.234;27.494;2023-01-31T06:44:03;12.73;;;9.35;;
56810;SDS011;42691;47.234;27.494;2023-01-31T06:46:29;14.60;;;10.95;;
56810;SDS011;42691;47.234;27.494;2023-01-31T06:48:54;15.07;;;10.93;;
56810;SDS011;42691;47.234;27.494;2023-01-31T06:51:20;12.50;;;11.02;;
56810;SDS011;42691;47.234;27.494;2023-01-31T06:53:45;20.90;;;11.40;;
56810;SDS011;42691;47.234;27.494;2023-01-31T06:56:11;11.20;;;9.73;;
56810;SDS011;42691;47.234;27.494;2023-01-31T06:58:36;11.88;;;8.85;;
56810;SDS011;42691;47.234;27.494;2023-01-31T07:01:09;10.88;;;8.65;;
56810;SDS011;42691;47.234;27.494;2023-01-31T07:03:37;13.43;;;10.25;;
56810;SDS011;42691;47.234;27.494;2023-01-31T07:06:03;14.13;;;10.57;;
56810;SDS011;42691;47.234;27.494;2023-01-31T07:08:29;17.35;;;10.15;;
56810;SDS011;42691;47.234;27.494;2023-01-31T07:10:55;11.98;;;9.13;;
56810;SDS011;42691;47.234;27.494;2023-01-31T07:13:21;13.75;;;11.32;;
56810;SDS011;42691;47.234;27.494;2023-01-31T07:15:47;16.25;;;9.95;;
56810;SDS011;42691;47.234;27.494;2023-01-31T07:18:12;12.20;;;9.63;;
56810;SDS011;42691;47.234;27.494;2023-01-31T07:20:41;15.15;;;10.00;;
56810;SDS011;42691;47.234;27.494;2023-01-31T07:23:07;13.18;;;9.98;;
56810;SDS011;42691;47.234;27.494;2023-01-31T07:25:33;17.17;;;10.60;;
56810;SDS011;42691;47.234;27.494;2023-01-31T07:27:59;14.82;;;10.02;;
56810;SDS011;42691;47.234;27.494;2023-01-31T07:30:26;16.23;;;11.75;;
56810;SDS011;42691;47.234;27.494;2023-01-31T07:32:52;18.75;;;12.88;;
56810;SDS011;42691;47.234;27.494;2023-01-31T07:35:17;18.13;;;12.60;;
56810;SDS011;42691;47.234;27.494;2023-01-31T07:37:44;14.63;;;11.95;;
56810;SDS011;42691;47.234;27.494;2023-01-31T07:40:10;12.25;;;10.70;;
56810;SDS011;42691;47.234;27.494;2023-01-31T07:42:37;15.32;;;10.65;;
56810;SDS011;42691;47.234;27.494;2023-01-31T07:45:02;18.70;;;11.55;;
56810;SDS011;42691;47.234;27.494;2023-01-31T07:47:28;12.75;;;10.25;;
56810;SDS011;42691;47.234;27.494;2023-01-31T07:49:53;10.73;;;9.63;;
56810;SDS011;42691;47.234;27.494;2023-01-31T07:52:18;12.05;;;9.15;;
56810;SDS011;42691;47.234;27.494;2023-01-31T07:54:44;12.52;;;9.10;;
56810;SDS011;42691;47.234;27.494;2023-01-31T07:57:09;14.00;;;12.05;;
56810;SDS011;42691;47.234;27.494;2023-01-31T07:59:35;13.10;;;9.38;;
56810;SDS011;42691;47.234;27.494;2023-01-31T08:02:00;14.35;;;12.05;;
56810;SDS011;42691;47.234;27.494;2023-01-31T08:04:44;13.45;;;11.73;;
56810;SDS011;42691;47.234;27.494;2023-01-31T08:07:11;12.82;;;10.40;;
56810;SDS011;42691;47.234;27.494;2023-01-31T08:09:36;15.35;;;11.73;;
56810;SDS011;42691;47.234;27.494;2023-01-31T08:12:03;13.65;;;10.43;;
56810;SDS011;42691;47.234;27.494;2023-01-31T08:14:29;12.55;;;10.57;;
56810;SDS011;42691;47.234;27.494;2023-01-31T08:16:55;14.50;;;10.35;;
56810;SDS011;42691;47.234;27.494;2023-01-31T08:19:20;15.52;;;9.40;;
56810;SDS011;42691;47.234;27.494;2023-01-31T08:21:48;11.85;;;10.45;;
56810;SDS011;42691;47.234;27.494;2023-01-31T08:24:14;16.33;;;12.55;;
56810;SDS011;42691;47.234;27.494;2023-01-31T08:26:40;16.38;;;11.60;;
56810;SDS011;42691;47.234;27.494;2023-01-31T08:29:06;17.80;;;13.15;;
56810;SDS011;42691;47.234;27.494;2023-01-31T08:31:32;12.70;;;9.27;;
56810;SDS011;42691;47.234;27.494;2023-01-31T08:33:58;17.35;;;11.32;;
56810;SDS011;42691;47.234;27.494;2023-01-31T08:36:25;13.27;;;10.88;;
56810;SDS011;42691;47.234;27.494;2023-01-31T08:38:53;13.55;;;9.60;;
56810;SDS011;42691;47.234;27.494;2023-01-31T08:41:20;15.82;;;10.18;;
56810;SDS011;42691;47.234;27.494;2023-01-31T08:43:46;16.33;;;10.65;;
56810;SDS011;42691;47.234;27.494;2023-01-31T08:46:15;15.50;;;10.30;;
56810;SDS011;42691;47.234;27.494;2023-01-31T08:48:41;34.25;;;11.38;;
56810;SDS011;42691;47.234;27.494;2023-01-31T08:51:09;19.38;;;11.55;;
56810;SDS011;42691;47.234;27.494;2023-01-31T08:53:37;15.93;;;9.98;;
56810;SDS011;42691;47.234;27.494;2023-01-31T08:56:04;17.35;;;10.57;;
56810;SDS011;42691;47.234;27.494;2023-01-31T08:58:32;18.38;;;10.43;;
56810;SDS011;42691;47.234;27.494;2023-01-31T09:01:02;15.18;;;10.38;;
56810;SDS011;42691;47.234;27.494;2023-01-31T09:03:29;16.60;;;11.18;;
56810;SDS011;42691;47.234;27.494;2023-01-31T09:05:58;17.55;;;11.48;;
56810;SDS011;42691;47.234;27.494;2023-01-31T09:08:25;17.67;;;12.23;;
56810;SDS011;42691;47.234;27.494;2023-01-31T09:10:51;15.32;;;12.35;;
56810;SDS011;42691;47.234;27.494;2023-01-31T09:13:18;16.60;;;13.38;;
56810;SDS011;42691;47.234;27.494;2023-01-31T09:15:43;23.88;;;10.45;;
56810;SDS011;42691;47.234;27.494;2023-01-31T09:18:09;16.00;;;10.80;;
56810;SDS011;42691;47.234;27.494;2023-01-31T09:20:34;14.10;;;9.73;;
56810;SDS011;42691;47.234;27.494;2023-01-31T09:23:00;17.95;;;11.02;;
56810;SDS011;42691;47.234;27.494;2023-01-31T09:25:25;21.85;;;11.63;;
56810;SDS011;42691;47.234;27.494;2023-01-31T09:27:51;14.77;;;10.52;;
56810;SDS011;42691;47.234;27.494;2023-01-31T09:30:17;15.02;;;11.60;;
56810;SDS011;42691;47.234;27.494;2023-01-31T09:32:43;14.38;;;12.43;;
56810;SDS011;42691;47.234;27.494;2023-01-31T09:35:10;17.58;;;10.38;;
56810;SDS011;42691;47.234;27.494;2023-01-31T09:37:36;12.43;;;10.25;;
56810;SDS011;42691;47.234;27.494;2023-01-31T09:40:03;16.25;;;11.93;;
56810;SDS011;42691;47.234;27.494;2023-01-31T09:42:32;18.55;;;14.32;;
56810;SDS011;42691;47.234;27.494;2023-01-31T09:47:33;13.07;;;9.55;;
56810;SDS011;42691;47.234;27.494;2023-01-31T09:50:22;14.82;;;9.00;;
56810;SDS011;42691;47.234;27.494;2023-01-31T09:53:13;10.90;;;8.32;;
56810;SDS011;42691;47.234;27.494;2023-01-31T10:01:28;9.55;;;7.00;;
56810;SDS011;42691;47.234;27.494;2023-01-31T10:07:03;13.43;;;8.73;;
56810;SDS011;42691;47.234;27.494;2023-01-31T10:12:15;9.27;;;7.88;;
56810;SDS011;42691;47.234;27.494;2023-01-31T10:14:48;10.20;;;9.00;;
56810;SDS011;42691;47.234;27.494;2023-01-31T10:22:33;13.57;;;7.28;;
56810;SDS011;42691;47.234;27.494;2023-01-31T10:25:24;9.43;;;7.33;;
56810;SDS011;42691;47.234;27.494;2023-01-31T10:28:03;8.80;;;6.70;;
56810;SDS011;42691;47.234;27.494;2023-01-31T10:30:43;9.25;;;7.20;;
56810;SDS011;42691;47.234;27.494;2023-01-31T10:35:53;9.93;;;7.30;;
56810;SDS011;42691;47.234;27.494;2023-01-31T10:41:05;13.07;;;8.60;;
56810;SDS011;42691;47.234;27.494;2023-01-31T10:43:42;12.75;;;8.52;;
56810;SDS011;42691;47.234;27.494;2023-01-31T10:46:12;10.63;;;7.82;;
56810;SDS011;42691;47.234;27.494;2023-01-31T10:48:39;10.80;;;8.15;;
56810;SDS011;42691;47.234;27.494;2023-01-31T10:56:47;12.70;;;10.13;;
56810;SDS011;42691;47.234;27.494;2023-01-31T10:59:17;10.35;;;7.15;;
56810;SDS011;42691;47.234;27.494;2023-01-31T11:01:49;11.13;;;6.47;;
56810;SDS011;42691;47.234;27.494;2023-01-31T11:04:26;15.38;;;9.30;;
56810;SDS011;42691;47.234;27.494;2023-01-31T11:06:52;9.30;;;7.80;;
56810;SDS011;42691;47.234;27.494;2023-01-31T11:09:18;14.30;;;8.63;;
56810;SDS011;42691;47.234;27.494;2023-01-31T11:14:21;11.52;;;8.45;;
56810;SDS011;42691;47.234;27.494;2023-01-31T11:16:47;10.30;;;7.65;;
56810;SDS011;42691;47.234;27.494;2023-01-31T11:21:47;9.73;;;8.30;;
56810;SDS011;42691;47.234;27.494;2023-01-31T11:24:17;14.95;;;9.73;;
56810;SDS011;42691;47.234;27.494;2023-01-31T11:29:39;14.83;;;10.13;;
56810;SDS011;42691;47.234;27.494;2023-01-31T11:32:22;20.08;;;12.20;;
56810;SDS011;42691;47.234;27.494;2023-01-31T11:35:01;22.27;;;9.50;;
56810;SDS011;42691;47.234;27.494;2023-01-31T11:37:55;13.27;;;9.80;;
56810;SDS011;42691;47.234;27.494;2023-01-31T11:40:46;16.58;;;10.63;;
56810;SDS011;42691;47.234;27.494;2023-01-31T11:45:38;14.60;;;10.90;;
56810;SDS011;42691;47.234;27.494;2023-01-31T11:50:42;12.52;;;10.45;;
56810;SDS011;42691;47.234;27.494;2023-01-31T11:53:16;10.23;;;9.10;;
56810;SDS011;42691;47.234;27.494;2023-01-31T11:55:42;10.98;;;7.55;;
56810;SDS011;42691;47.234;27.494;2023-01-31T11:58:19;17.77;;;10.93;;
56810;SDS011;42691;47.234;27.494;2023-01-31T12:00:55;12.73;;;9.00;;
56810;SDS011;42691;47.234;27.494;2023-01-31T12:03:23;11.23;;;7.97;;
56810;SDS011;42691;47.234;27.494;2023-01-31T12:05:51;10.93;;;8.35;;
56810;SDS011;42691;47.234;27.494;2023-01-31T12:08:32;16.02;;;11.73;;
56810;SDS011;42691;47.234;27.494;2023-01-31T12:13:44;15.32;;;11.07;;
56810;SDS011;42691;47.234;27.494;2023-01-31T12:16:16;10.20;;;8.45;;
56810;SDS011;42691;47.234;27.494;2023-01-31T12:26:51;9.93;;;8.50;;
56810;SDS011;42691;47.234;27.494;2023-01-31T12:37:36;14.48;;;7.57;;
56810;SDS011;42691;47.234;27.494;2023-01-31T12:50:47;7.70;;;5.60;;
56810;SDS011;42691;47.234;27.494;2023-01-31T12:54:07;7.03;;;5.47;;
56810;SDS011;42691;47.234;27.494;2023-01-31T12:59:41;8.90;;;5.75;;
56810;SDS011;42691;47.234;27.494;2023-01-31T13:01:47;10.88;;;6.35;;
56810;SDS011;42691;47.234;27.494;2023-01-31T13:07:28;9.20;;;6.88;;
56810;SDS011;42691;47.234;27.494;2023-01-31T13:10:36;13.00;;;8.48;;
56810;SDS011;42691;47.234;27.494;2023-01-31T13:13:15;9.20;;;7.20;;
56810;SDS011;42691;47.234;27.494;2023-01-31T13:16:03;10.83;;;6.70;;
56810;SDS011;42691;47.234;27.494;2023-01-31T13:18:36;12.98;;;7.32;;
56810;SDS011;42691;47.234;27.494;2023-01-31T13:21:03;10.77;;;7.43;;
56810;SDS011;42691;47.234;27.494;2023-01-31T13:23:32;10.15;;;7.63;;
56810;SDS011;42691;47.234;27.494;2023-01-31T13:26:05;11.50;;;7.80;;
56810;SDS011;42691;47.234;27.494;2023-01-31T13:28:41;10.27;;;8.00;;
56810;SDS011;42691;47.234;27.494;2023-01-31T13:31:23;15.48;;;9.10;;
56810;SDS011;42691;47.234;27.494;2023-01-31T13:36:51;9.20;;;6.88;;
56810;SDS011;42691;47.234;27.494;2023-01-31T13:39:26;8.10;;;5.97;;
56810;SDS011;42691;47.234;27.494;2023-01-31T13:41:53;12.65;;;8.57;;
56810;SDS011;42691;47.234;27.494;2023-01-31T13:44:19;14.60;;;7.45;;
56810;SDS011;42691;47.234;27.494;2023-01-31T13:49:24;9.02;;;7.30;;
56810;SDS011;42691;47.234;27.494;2023-01-31T13:52:04;14.27;;;10.10;;
56810;SDS011;42691;47.234;27.494;2023-01-31T13:54:40;13.63;;;10.93;;
56810;SDS011;42691;47.234;27.494;2023-01-31T13:57:20;12.20;;;9.00;;
56810;SDS011;42691;47.234;27.494;2023-01-31T13:59:53;14.63;;;9.38;;
56810;SDS011;42691;47.234;27.494;2023-01-31T14:02:21;14.10;;;9.95;;
56810;SDS011;42691;47.234;27.494;2023-01-31T14:04:47;14.40;;;8.27;;
56810;SDS011;42691;47.234;27.494;2023-01-31T14:07:14;13.27;;;8.45;;
56810;SDS011;42691;47.234;27.494;2023-01-31T14:23:29;10.52;;;6.28;;
56810;SDS011;42691;47.234;27.494;2023-01-31T14:27:45;11.93;;;8.48;;
56810;SDS011;42691;47.234;27.494;2023-01-31T14:40:56;14.13;;;9.02;;
56810;SDS011;42691;47.234;27.494;2023-01-31T14:49:14;6.70;;;4.18;;
56810;SDS011;42691;47.234;27.494;2023-01-31T14:54:42;8.13;;;3.42;;
56810;SDS011;42691;47.234;27.494;2023-01-31T14:57:37;9.98;;;4.47;;
56810;SDS011;42691;47.234;27.494;2023-01-31T15:13:34;8.93;;;5.25;;
56810;SDS011;42691;47.234;27.494;2023-01-31T15:21:32;7.63;;;4.57;;
56810;SDS011;42691;47.234;27.494;2023-01-31T15:24:04;11.48;;;5.20;;
56810;SDS011;42691;47.234;27.494;2023-01-31T15:26:39;7.40;;;4.97;;
56810;SDS011;42691;47.234;27.494;2023-01-31T15:29:05;7.43;;;5.18;;
56810;SDS011;42691;47.234;27.494;2023-01-31T15:31:40;8.57;;;5.45;;
56810;SDS011;42691;47.234;27.494;2023-01-31T15:34:18;17.55;;;10.45;;
56810;SDS011;42691;47.234;27.494;2023-01-31T15:40:20;24.08;;;17.35;;
56810;SDS011;42691;47.234;27.494;2023-01-31T15:42:48;23.00;;;15.30;;
56810;SDS011;42691;47.234;27.494;2023-01-31T15:45:18;14.88;;;10.60;;
56810;SDS011;42691;47.234;27.494;2023-01-31T15:50:37;15.75;;;11.27;;
56810;SDS011;42691;47.234;27.494;2023-01-31T15:53:14;20.15;;;15.98;;
56810;SDS011;42691;47.234;27.494;2023-01-31T15:55:41;18.10;;;12.23;;
56810;SDS011;42691;47.234;27.494;2023-01-31T15:58:20;19.23;;;9.50;;
56810;SDS011;42691;47.234;27.494;2023-01-31T16:00:52;10.07;;;7.18;;
56810;SDS011;42691;47.234;27.494;2023-01-31T16:03:20;14.82;;;7.15;;
56810;SDS011;42691;47.234;27.494;2023-01-31T16:05:49;10.77;;;9.20;;
56810;SDS011;42691;47.234;27.494;2023-01-31T16:08:26;12.40;;;9.23;;
56810;SDS011;42691;47.234;27.494;2023-01-31T16:10:53;15.20;;;10.45;;
56810;SDS011;42691;47.234;27.494;2023-01-31T16:13:19;12.82;;;9.88;;
56810;SDS011;42691;47.234;27.494;2023-01-31T16:15:46;10.98;;;9.02;;
56810;SDS011;42691;47.234;27.494;2023-01-31T16:18:12;14.00;;;8.75;;
56810;SDS011;42691;47.234;27.494;2023-01-31T16:28:54;8.02;;;6.90;;
56810;SDS011;42691;47.234;27.494;2023-01-31T16:31:24;11.52;;;7.22;;
56810;SDS011;42691;47.234;27.494;2023-01-31T16:33:54;12.77;;;8.30;;
56810;SDS011;42691;47.234;27.494;2023-01-31T16:36:50;11.73;;;6.70;;
56810;SDS011;42691;47.234;27.494;2023-01-31T16:42:05;21.92;;;8.43;;
56810;SDS011;42691;47.234;27.494;2023-01-31T16:44:46;8.30;;;6.35;;
56810;SDS011;42691;47.234;27.494;2023-01-31T16:47:29;12.73;;;6.78;;
56810;SDS011;42691;47.234;27.494;2023-01-31T16:52:40;6.95;;;4.80;;
56810;SDS011;42691;47.234;27.494;2023-01-31T16:55:14;11.50;;;6.20;;
56810;SDS011;42691;47.234;27.494;2023-01-31T16:57:44;16.60;;;5.82;;
56810;SDS011;42691;47.234;27.494;2023-01-31T17:00:43;5.80;;;4.88;;
56810;SDS011;42691;47.234;27.494;2023-01-31T17:03:02;7.00;;;4.10;;
56810;SDS011;42691;47.234;27.494;2023-01-31T17:05:38;5.45;;;4.32;;
56810;SDS011;42691;47.234;27.494;2023-01-31T17:08:16;8.27;;;4.32;;
56810;SDS011;42691;47.234;27.494;2023-01-31T17:10:44;7.18;;;4.72;;
56810;SDS011;42691;47.234;27.494;2023-01-31T17:13:21;8.35;;;4.25;;
56810;SDS011;42691;47.234;27.494;2023-01-31T17:15:49;5.20;;;4.47;;
56810;SDS011;42691;47.234;27.494;2023-01-31T17:18:14;9.70;;;5.28;;
56810;SDS011;42691;47.234;27.494;2023-01-31T17:20:45;13.10;;;6.47;;
56810;SDS011;42691;47.234;27.494;2023-01-31T17:23:14;6.95;;;4.80;;
56810;SDS011;42691;47.234;27.494;2023-01-31T17:25:41;8.07;;;5.78;;
56810;SDS011;42691;47.234;27.494;2023-01-31T17:28:07;13.50;;;7.15;;
56810;SDS011;42691;47.234;27.494;2023-01-31T17:30:36;11.60;;;6.97;;
56810;SDS011;42691;47.234;27.494;2023-01-31T17:33:03;8.68;;;5.35;;
56810;SDS011;42691;47.234;27.494;2023-01-31T17:35:38;8.95;;;7.32;;
56810;SDS011;42691;47.234;27.494;2023-01-31T17:38:05;10.02;;;7.38;;
56810;SDS011;42691;47.234;27.494;2023-01-31T17:40:31;7.32;;;6.40;;
56810;SDS011;42691;47.234;27.494;2023-01-31T17:42:58;11.63;;;6.80;;